createdAt,value
2019-01-05T00:01:15.657Z,99.40
2019-01-05T00:03:53.663Z,99.30
2019-01-05T00:06:30.545Z,99.40
2019-01-05T00:09:13.450Z,99.40
2019-01-05T00:11:49.022Z,99.20
2019-01-05T00:14:21.786Z,99.20
2019-01-05T00:19:53.216Z,98.80
2019-01-05T00:22:23.694Z,99.30
2019-01-05T00:25:06.269Z,99.10
2019-01-05T00:27:39.946Z,99.00
2019-01-05T00:30:19.163Z,98.90
2019-01-05T00:33:02.056Z,98.70
2019-01-05T00:35:44.035Z,98.80
2019-01-05T00:38:15.648Z,99.00
2019-01-05T00:40:48.983Z,98.50
2019-01-05T00:43:22.321Z,98.80
2019-01-05T00:46:10.033Z,98.90
2019-01-05T00:48:44.312Z,99.10
2019-01-05T00:51:35.074Z,98.80
2019-01-05T00:54:07.748Z,98.70
2019-01-05T00:56:39.307Z,98.70
2019-01-05T00:59:09.845Z,98.50
2019-01-05T01:01:40.234Z,98.70
2019-01-05T01:04:13.321Z,98.60
2019-01-05T01:06:43.389Z,98.60
2019-01-05T01:09:16.269Z,98.40
2019-01-05T01:11:52.358Z,98.10
2019-01-05T01:14:22.589Z,98.20
2019-01-05T01:16:55.467Z,98.20
2019-01-05T01:19:41.995Z,97.90
2019-01-05T01:22:18.247Z,97.90
2019-01-05T01:25:03.573Z,98.10
2019-01-05T01:27:34.087Z,98.30
2019-01-05T01:30:21.012Z,98.40
2019-01-05T01:33:22.775Z,98.30
2019-01-05T01:35:55.897Z,98.70
2019-01-05T01:38:31.249Z,98.70
2019-01-05T01:41:22.508Z,98.50
2019-01-05T01:43:55.969Z,98.10
2019-01-05T01:46:36.471Z,98.60
2019-01-05T01:49:12.571Z,98.70
2019-01-05T01:51:46.241Z,99.00
2019-01-05T01:54:16.651Z,99.10
2019-01-05T01:56:48.931Z,99.00
2019-01-05T01:59:37.076Z,99.10
2019-01-05T02:02:14.032Z,98.70
2019-01-05T02:05:00.488Z,99.10
2019-01-05T02:07:49.219Z,99.00
2019-01-05T02:10:26.695Z,98.90
2019-01-05T02:13:02.855Z,99.00
2019-01-05T02:15:35.724Z,99.10
2019-01-05T02:18:25.084Z,99.00
2019-01-05T02:21:12.852Z,98.70
2019-01-05T02:24:13.863Z,99.30
2019-01-05T02:27:24.281Z,99.00
2019-01-05T02:30:19.888Z,99.00
2019-01-05T02:33:01.417Z,99.00
2019-01-05T02:35:56.844Z,99.30
2019-01-05T02:39:07.579Z,99.40
2019-01-05T02:41:55.827Z,99.40
2019-01-05T02:44:47.273Z,99.20
2019-01-05T02:47:35.845Z,99.20
2019-01-05T02:50:36.345Z,99.30
2019-01-05T02:53:50.646Z,99.20
2019-01-05T02:56:35.691Z,99.00
2019-01-05T02:59:42.337Z,99.00
2019-01-05T03:02:50.492Z,99.10
2019-01-05T03:05:50.112Z,98.90
2019-01-05T03:08:59.489Z,99.10
2019-01-05T03:12:15.153Z,99.00
2019-01-05T03:15:19.647Z,99.00
2019-01-05T03:18:10.657Z,98.90
2019-01-05T03:20:55.486Z,99.00
2019-01-05T03:23:51.346Z,98.90
2019-01-05T03:27:01.120Z,98.70
2019-01-05T03:30:11.996Z,99.00
2019-01-05T03:33:10.789Z,99.00
2019-01-05T03:36:21.197Z,98.70
2019-01-05T03:39:12.028Z,99.00
2019-01-05T03:41:56.927Z,99.10
2019-01-05T03:44:44.851Z,99.30
2019-01-05T03:47:44.494Z,99.00
2019-01-05T03:50:59.980Z,99.00
2019-01-05T03:53:38.615Z,99.40
2019-01-05T03:56:29.444Z,99.30
2019-01-05T03:59:05.432Z,99.30
2019-01-05T04:02:09.383Z,99.30
2019-01-05T04:05:23.756Z,99.10
2019-01-05T04:08:47.040Z,99.20
2019-01-05T04:11:35.218Z,99.40
2019-01-05T04:14:13.585Z,99.60
2019-01-05T04:17:14.066Z,99.50
2019-01-05T04:20:25.045Z,99.50
2019-01-05T04:23:23.697Z,99.70
2019-01-05T04:26:17.539Z,99.90
2019-01-05T04:29:08.581Z,99.90
2019-01-05T04:32:16.604Z,99.90
2019-01-05T04:35:17.044Z,99.90
2019-01-05T04:38:01.912Z,99.90
2019-01-05T04:41:16.175Z,99.90
2019-01-05T04:44:07.407Z,99.90
2019-01-05T04:47:06.521Z,99.90
2019-01-05T04:50:18.793Z,99.90
2019-01-05T04:53:08.606Z,99.90
2019-01-05T04:56:01.164Z,99.90
2019-01-05T04:59:10.897Z,99.90
2019-01-05T05:02:03.690Z,99.90
2019-01-05T05:05:02.140Z,99.90
2019-01-05T05:08:00.725Z,99.90
2019-01-05T05:10:42.169Z,99.90
2019-01-05T05:13:33.743Z,99.90
2019-01-05T05:16:40.090Z,99.90
2019-01-05T05:19:48.984Z,99.90
2019-01-05T05:22:40.463Z,99.90
2019-01-05T05:25:24.915Z,99.90
2019-01-05T05:28:29.215Z,99.90
2019-01-05T05:31:32.484Z,99.90
2019-01-05T05:34:34.227Z,99.90
2019-01-05T05:37:31.913Z,99.90
2019-01-05T05:40:37.976Z,99.90
2019-01-05T05:43:13.843Z,99.90
2019-01-05T05:45:49.939Z,99.90
2019-01-05T05:48:47.281Z,99.90
2019-01-05T05:52:00.864Z,99.90
2019-01-05T05:55:11.851Z,99.90
2019-01-05T05:58:10.364Z,99.90
2019-01-05T06:01:13.012Z,99.90
2019-01-05T06:03:55.261Z,99.90
2019-01-05T06:07:06.036Z,99.90
2019-01-05T06:09:50.463Z,99.90
2019-01-05T06:12:56.691Z,99.90
2019-01-05T06:16:01.854Z,99.90
2019-01-05T06:18:55.431Z,99.90
2019-01-05T06:22:00.353Z,99.90
2019-01-05T06:24:56.158Z,99.90
2019-01-05T06:28:19.345Z,99.90
2019-01-05T06:31:21.352Z,99.90
2019-01-05T06:34:18.533Z,99.90
2019-01-05T06:37:22.094Z,99.90
2019-01-05T06:40:16.152Z,99.90
2019-01-05T06:43:08.754Z,99.90
2019-01-05T06:46:19.210Z,99.90
2019-01-05T06:49:22.076Z,99.90
2019-01-05T06:52:27.974Z,99.90
2019-01-05T06:55:27.605Z,99.90
2019-01-05T06:58:17.123Z,99.90
2019-01-05T07:01:32.687Z,99.90
2019-01-05T07:04:38.975Z,99.90
2019-01-05T07:07:52.907Z,99.90
2019-01-05T07:10:54.332Z,99.90
2019-01-05T07:14:00.604Z,99.90
2019-01-05T07:17:06.776Z,99.90
2019-01-05T07:20:20.262Z,99.90
2019-01-05T07:23:09.444Z,99.90
2019-01-05T07:26:24.721Z,99.90
2019-01-05T07:29:34.205Z,99.90
2019-01-05T07:32:31.560Z,99.90
2019-01-05T07:35:47.323Z,99.90
2019-01-05T07:39:08.406Z,99.90
2019-01-05T07:41:58.296Z,99.90
2019-01-05T07:45:02.434Z,99.90
2019-01-05T07:48:08.702Z,99.90
2019-01-05T07:51:20.464Z,99.90
2019-01-05T07:54:11.464Z,99.90
2019-01-05T07:57:20.886Z,99.90
2019-01-05T08:00:25.636Z,99.90
2019-01-05T08:03:24.275Z,99.90
2019-01-05T08:06:21.388Z,99.90
2019-01-05T08:09:15.521Z,99.90
2019-01-05T08:12:22.613Z,99.90
2019-01-05T08:15:33.100Z,99.90
2019-01-05T08:18:41.308Z,99.90
2019-01-05T08:21:43.191Z,99.90
2019-01-05T08:24:38.024Z,99.90
2019-01-05T08:27:33.677Z,99.90
2019-01-05T08:30:28.902Z,99.90
2019-01-05T08:33:43.677Z,99.90
2019-01-05T08:36:39.540Z,99.90
2019-01-05T08:39:59.333Z,99.90
2019-01-05T08:43:17.965Z,99.90
2019-01-05T08:46:27.505Z,99.90
2019-01-05T08:49:06.420Z,99.90
2019-01-05T08:51:54.504Z,99.90
2019-01-05T08:54:51.366Z,99.90
2019-01-05T08:57:44.080Z,99.90
2019-01-05T09:00:50.524Z,99.90
2019-01-05T09:03:44.523Z,99.90
2019-01-05T09:06:52.166Z,99.90
2019-01-05T09:09:57.324Z,99.90
2019-01-05T09:13:03.524Z,99.90
2019-01-05T09:15:39.408Z,99.90
2019-01-05T09:18:39.577Z,99.90
2019-01-05T09:21:53.389Z,99.90
2019-01-05T09:24:50.304Z,99.90
2019-01-05T09:27:40.721Z,99.90
2019-01-05T09:30:33.371Z,99.90
2019-01-05T09:33:41.019Z,99.90
2019-01-05T09:36:50.528Z,99.90
2019-01-05T09:39:55.754Z,99.90
2019-01-05T09:43:03.282Z,99.90
2019-01-05T09:46:06.764Z,99.90
2019-01-05T09:49:26.644Z,99.90
2019-01-05T09:52:34.591Z,99.90
2019-01-05T09:55:19.470Z,99.90
2019-01-05T09:58:32.367Z,99.90
2019-01-05T10:01:21.924Z,99.90
2019-01-05T10:04:20.428Z,99.90
2019-01-05T10:07:22.176Z,99.90
2019-01-05T10:10:31.081Z,99.90
2019-01-05T10:13:48.213Z,99.90
2019-01-05T10:16:47.945Z,99.90
2019-01-05T10:19:35.765Z,99.90
2019-01-05T10:22:39.100Z,99.90
2019-01-05T10:25:36.132Z,99.90
2019-01-05T10:28:36.488Z,99.90
2019-01-05T10:31:09.652Z,99.90
2019-01-05T10:34:17.671Z,99.90
2019-01-05T10:37:22.357Z,99.90
2019-01-05T10:40:34.585Z,99.90
2019-01-05T10:43:30.010Z,99.90
2019-01-05T10:46:15.488Z,99.90
2019-01-05T10:48:56.811Z,99.90
2019-01-05T10:51:50.536Z,99.90
2019-01-05T10:54:58.404Z,99.90
2019-01-05T10:58:07.432Z,99.90
2019-01-05T11:00:43.556Z,99.90
2019-01-05T11:03:22.111Z,99.90
2019-01-05T11:06:30.149Z,99.90
2019-01-05T11:09:36.197Z,99.90
2019-01-05T11:12:24.024Z,99.90
2019-01-05T11:15:32.081Z,99.90
2019-01-05T11:18:35.875Z,99.90
2019-01-05T11:21:14.853Z,99.90
2019-01-05T11:24:02.888Z,99.90
2019-01-05T11:27:01.021Z,99.90
2019-01-05T11:30:09.865Z,99.90
2019-01-05T11:33:17.632Z,99.90
2019-01-05T11:36:08.447Z,99.90
2019-01-05T11:39:20.999Z,99.90
2019-01-05T11:42:11.881Z,99.90
2019-01-05T11:44:50.744Z,99.90
2019-01-05T11:47:47.605Z,99.90
2019-01-05T11:51:10.514Z,99.90
2019-01-05T11:54:09.926Z,99.90
2019-01-05T11:57:11.452Z,99.90
2019-01-05T12:00:07.320Z,99.90
2019-01-05T12:03:02.428Z,99.90
2019-01-05T12:05:50.581Z,99.90
2019-01-05T12:08:39.638Z,99.90
2019-01-05T12:11:54.773Z,99.90
2019-01-05T12:14:52.716Z,99.90
2019-01-05T12:17:49.963Z,99.90
2019-01-05T12:20:47.396Z,99.90
2019-01-05T12:23:47.194Z,99.90
2019-01-05T12:26:38.294Z,99.90
2019-01-05T12:29:44.739Z,99.90
2019-01-05T12:33:09.332Z,99.90
2019-01-05T12:36:08.103Z,99.90
2019-01-05T12:38:59.083Z,99.90
2019-01-05T12:41:46.912Z,99.90
2019-01-05T12:44:28.619Z,99.90
2019-01-05T12:47:27.692Z,99.90
2019-01-05T12:50:38.673Z,99.90
2019-01-05T12:53:35.652Z,99.90
2019-01-05T12:56:28.355Z,99.90
2019-01-05T12:59:28.467Z,99.90
2019-01-05T13:02:48.280Z,99.90
2019-01-05T13:05:47.819Z,99.90
2019-01-05T13:08:48.116Z,99.90
2019-01-05T13:12:12.604Z,99.90
2019-01-05T13:14:51.337Z,99.90
2019-01-05T13:17:57.661Z,99.90
2019-01-05T13:21:15.588Z,99.90
2019-01-05T13:24:08.497Z,99.90
2019-01-05T13:27:14.258Z,99.90
2019-01-05T13:30:23.788Z,99.90
2019-01-05T13:33:20.921Z,99.90
2019-01-05T13:36:10.192Z,99.90
2019-01-05T13:39:19.228Z,99.90
2019-01-05T13:42:10.300Z,99.90
2019-01-05T13:45:22.408Z,99.90
2019-01-05T13:48:11.720Z,99.90
2019-01-05T13:51:08.901Z,99.90
2019-01-05T13:53:44.444Z,99.90
2019-01-05T13:56:35.006Z,99.90
2019-01-05T13:59:20.316Z,99.90
2019-01-05T14:01:50.399Z,99.90
2019-01-05T14:04:20.467Z,99.90
2019-01-05T14:06:59.104Z,99.90
2019-01-05T14:09:34.647Z,99.90
2019-01-05T14:12:04.761Z,99.90
2019-01-05T14:14:40.984Z,99.90
2019-01-05T14:17:11.100Z,99.90
2019-01-05T14:19:43.824Z,99.90
2019-01-05T14:22:30.174Z,99.90
2019-01-05T14:25:00.241Z,99.90
2019-01-05T14:27:30.396Z,99.90
2019-01-05T14:30:00.492Z,99.90
2019-01-05T14:32:33.444Z,99.90
2019-01-05T14:35:06.500Z,99.90
2019-01-05T14:37:54.897Z,99.90
2019-01-05T14:40:27.638Z,99.90
2019-01-05T14:42:57.716Z,99.90
2019-01-05T14:45:39.808Z,99.90
2019-01-05T14:48:22.185Z,99.90
2019-01-05T14:51:08.600Z,99.90
2019-01-05T14:53:44.473Z,99.90
2019-01-05T14:56:17.507Z,99.90
2019-01-05T14:58:56.203Z,99.90
2019-01-05T15:01:48.976Z,99.90
2019-01-05T15:04:44.774Z,99.90
2019-01-05T15:07:37.493Z,99.90
2019-01-05T15:10:13.130Z,99.90
2019-01-05T15:12:54.099Z,99.90
2019-01-05T15:15:26.000Z,99.90
2019-01-05T15:18:29.819Z,99.90
2019-01-05T15:21:06.509Z,99.90
2019-01-05T15:23:53.912Z,99.90
2019-01-05T15:26:29.567Z,99.90
2019-01-05T15:29:00.405Z,99.90
2019-01-05T15:31:45.801Z,99.90
2019-01-05T15:34:32.499Z,99.90
2019-01-05T15:37:19.063Z,99.90
2019-01-05T15:40:05.747Z,99.90
2019-01-05T15:42:47.994Z,99.90
2019-01-05T15:45:33.408Z,99.90
2019-01-05T15:48:06.202Z,99.90
2019-01-05T15:50:51.581Z,99.90
2019-01-05T15:53:21.651Z,99.90
2019-01-05T15:55:51.724Z,99.90
2019-01-05T15:58:21.825Z,99.90
2019-01-05T16:01:08.458Z,99.90
2019-01-05T16:03:42.783Z,99.90
2019-01-05T16:06:19.181Z,99.90
2019-01-05T16:09:06.992Z,99.90
2019-01-05T16:11:38.254Z,99.90
2019-01-05T16:14:16.960Z,99.90
2019-01-05T16:16:58.766Z,99.90
2019-01-05T16:19:31.911Z,99.90
2019-01-05T16:22:18.454Z,99.90
2019-01-05T16:25:04.963Z,99.90
2019-01-05T16:27:37.771Z,99.90
2019-01-05T16:30:15.069Z,99.90
2019-01-05T16:32:56.946Z,99.90
2019-01-05T16:35:27.048Z,99.90
2019-01-05T16:38:09.468Z,99.90
2019-01-05T16:40:42.378Z,99.90
2019-01-05T16:43:27.562Z,99.90
2019-01-05T16:46:06.785Z,99.90
2019-01-05T16:48:49.224Z,99.90
2019-01-05T16:51:36.291Z,99.90
2019-01-05T16:54:21.821Z,99.90
2019-01-05T16:56:57.461Z,99.90
2019-01-05T16:59:39.136Z,99.90
2019-01-05T17:02:27.552Z,99.90
2019-01-05T17:05:15.721Z,99.90
2019-01-05T17:07:48.549Z,99.90
2019-01-05T17:10:21.536Z,99.90
2019-01-05T17:13:00.852Z,99.90
2019-01-05T17:15:34.063Z,99.90
2019-01-05T17:18:13.097Z,99.90
2019-01-05T17:20:59.791Z,99.90
2019-01-05T17:23:41.923Z,99.90
2019-01-05T17:26:27.463Z,99.90
2019-01-05T17:28:57.560Z,99.90
2019-01-05T17:31:43.733Z,99.90
2019-01-05T17:34:16.547Z,99.90
2019-01-05T17:37:05.060Z,99.90
2019-01-05T17:39:51.386Z,99.90
2019-01-05T17:42:21.464Z,99.90
2019-01-05T17:45:07.840Z,99.90
2019-01-05T17:47:50.072Z,99.90
2019-01-05T17:50:20.261Z,99.90
2019-01-05T17:53:06.532Z,99.90
2019-01-05T17:55:53.017Z,99.90
2019-01-05T17:58:23.199Z,99.90
2019-01-05T18:00:56.075Z,99.90
2019-01-05T18:03:26.160Z,99.90
2019-01-05T18:05:56.237Z,99.90
2019-01-05T18:08:26.402Z,99.90
2019-01-05T18:11:22.035Z,99.90
2019-01-05T18:14:08.943Z,99.90
2019-01-05T18:16:51.345Z,99.90
2019-01-05T18:19:27.264Z,99.90
2019-01-05T18:22:13.643Z,99.90
2019-01-05T18:24:46.516Z,99.90
2019-01-05T18:27:34.895Z,99.90
2019-01-05T18:30:05.467Z,99.90
2019-01-05T18:32:44.400Z,99.90
2019-01-05T18:35:23.646Z,99.90
2019-01-05T18:38:09.795Z,99.90
2019-01-05T18:40:46.115Z,99.90
2019-01-05T18:43:25.034Z,99.90
2019-01-05T18:45:55.173Z,99.90
2019-01-05T18:48:25.393Z,99.90
2019-01-05T18:51:01.163Z,99.90
2019-01-05T18:53:48.985Z,99.90
2019-01-05T18:56:21.901Z,99.90
2019-01-05T18:58:58.227Z,99.90
2019-01-05T19:01:46.155Z,99.90
2019-01-05T19:04:16.218Z,99.90
2019-01-05T19:06:58.307Z,99.90
2019-01-05T19:09:29.309Z,99.90
2019-01-05T19:11:59.378Z,99.90
2019-01-05T19:14:38.735Z,99.90
2019-01-05T19:17:17.941Z,99.90
2019-01-05T19:19:50.635Z,99.90
2019-01-05T19:22:23.420Z,99.90
2019-01-05T19:25:05.833Z,99.90
2019-01-05T19:27:52.279Z,99.90
2019-01-05T19:30:38.538Z,99.90
2019-01-05T19:33:08.684Z,99.90
2019-01-05T19:35:44.742Z,99.90
2019-01-05T19:38:17.706Z,99.90
2019-01-05T19:40:56.845Z,99.90
2019-01-05T19:43:43.412Z,99.90
2019-01-05T19:46:22.555Z,99.90
2019-01-05T19:49:08.911Z,99.90
2019-01-05T19:51:44.679Z,99.90
2019-01-05T19:54:20.572Z,99.90
2019-01-05T19:56:56.751Z,99.90
2019-01-05T19:59:35.619Z,99.90
2019-01-05T20:02:08.188Z,99.90
2019-01-05T20:04:54.251Z,99.90
2019-01-05T20:07:40.694Z,99.90
2019-01-05T20:10:17.443Z,99.90
2019-01-05T20:12:47.504Z,99.90
2019-01-05T20:15:35.692Z,99.90
2019-01-05T20:18:23.802Z,99.90
2019-01-05T20:20:53.880Z,99.90
2019-01-05T20:23:29.697Z,99.90
2019-01-05T20:26:08.394Z,99.90
2019-01-05T20:28:38.479Z,99.90
2019-01-05T20:31:17.315Z,99.90
2019-01-05T20:33:56.160Z,99.90
2019-01-05T20:36:44.462Z,99.90
2019-01-05T20:39:30.679Z,99.90
2019-01-05T20:42:13.088Z,99.90
2019-01-05T20:44:43.147Z,99.90
2019-01-05T20:47:22.542Z,99.90
2019-01-05T20:49:52.644Z,99.90
2019-01-05T20:52:31.687Z,99.90
2019-01-05T20:55:19.861Z,99.90
2019-01-05T20:57:58.976Z,99.90
2019-01-05T21:00:45.299Z,99.90
2019-01-05T21:03:27.143Z,99.90
2019-01-05T21:06:13.656Z,99.90
2019-01-05T21:08:44.681Z,99.90
2019-01-05T21:11:33.004Z,99.90
2019-01-05T21:14:19.400Z,99.90
2019-01-05T21:16:58.568Z,99.90
2019-01-05T21:19:28.645Z,99.90
2019-01-05T21:21:58.719Z,99.90
2019-01-05T21:24:31.974Z,99.90
2019-01-05T21:27:05.005Z,99.90
2019-01-05T21:29:41.206Z,99.90
2019-01-05T21:32:27.605Z,99.90
2019-01-05T21:35:14.179Z,99.90
2019-01-05T21:37:53.339Z,99.90
2019-01-05T21:40:29.255Z,99.90
2019-01-05T21:43:15.939Z,99.90
2019-01-05T21:45:48.731Z,99.90
2019-01-05T21:48:27.636Z,99.90
2019-01-05T21:51:00.678Z,99.90
2019-01-05T21:53:42.743Z,99.90
2019-01-05T21:56:15.331Z,99.90
2019-01-05T21:58:52.992Z,99.90
2019-01-05T22:01:23.087Z,99.90
2019-01-05T22:03:53.144Z,99.90
2019-01-05T22:06:38.192Z,99.90
2019-01-05T22:09:09.212Z,99.90
2019-01-05T22:11:51.415Z,99.90
2019-01-05T22:14:37.667Z,99.90
2019-01-05T22:17:23.991Z,99.90
2019-01-05T22:20:03.271Z,99.90
2019-01-05T22:22:33.505Z,99.90
2019-01-05T22:25:12.525Z,99.90
2019-01-05T22:27:42.616Z,99.90
2019-01-05T22:30:29.327Z,99.90
2019-01-05T22:33:05.505Z,99.90
2019-01-05T22:35:38.493Z,99.90
2019-01-05T22:38:11.579Z,99.90
2019-01-05T22:40:57.694Z,99.90
2019-01-05T22:43:27.782Z,99.90
2019-01-05T22:46:00.681Z,99.90
2019-01-05T22:48:39.955Z,99.90
2019-01-05T22:51:10.020Z,99.90
2019-01-05T22:53:43.031Z,99.90
2019-01-05T22:56:15.812Z,99.90
2019-01-05T22:59:04.466Z,99.90
2019-01-05T23:01:34.549Z,99.90
2019-01-05T23:04:19.897Z,99.90
2019-01-05T23:07:06.359Z,99.90
2019-01-05T23:09:52.976Z,99.90
2019-01-05T23:12:26.003Z,99.90
2019-01-05T23:14:58.563Z,99.90
2019-01-05T23:17:40.983Z,99.90
2019-01-05T23:20:19.818Z,99.90
2019-01-05T23:22:58.818Z,99.90
2019-01-05T23:25:34.667Z,99.90
2019-01-05T23:28:04.756Z,99.90
2019-01-05T23:30:40.799Z,99.90
2019-01-05T23:33:19.395Z,99.90
2019-01-05T23:35:49.482Z,99.90
2019-01-05T23:38:19.605Z,99.90
2019-01-05T23:41:05.938Z,99.90
2019-01-05T23:43:36.029Z,99.90
2019-01-05T23:46:11.769Z,99.90
2019-01-05T23:48:44.876Z,99.90
2019-01-05T23:51:15.023Z,99.90
2019-01-05T23:53:57.227Z,99.90
2019-01-05T23:56:29.766Z,99.90
2019-01-05T23:59:18.159Z,99.90
